KBLH/BLH METAR and TAF weather

Enter ICAO airport designator
Station Type Date Time Source
KBLH METAR 2021/02/28 02:52 UTC NOAA

KBLH 280252Z AUTO 35009KT 10SM CLR 17/M11 A2990 RMK AO2 SLP123 T01671111 53018


Station Type Date Time Source
KBLH Decoded METAR 2021/02/28 02:52 UTC NOAA

BLYTHE AIRPORT, CA, United States (KBLH) 33-37N 114-43W 119M
Feb 27, 2021 - 09:52 PM EST / 2021.02.28 0252 UTC
Wind: from the N (350 degrees) at 10 MPH (9 KT):0
Visibility: 10 mile(s):0
Sky conditions: clear
Temperature: 62.1 F (16.7 C)
Dew Point: 12.0 F (-11.1 C)
Relative Humidity: 13%
Pressure (altimeter): 29.9 in. Hg (1012 hPa)
Pressure tendency: 0.05 inches (1.8 hPa) higher than three hours ago
ob: KBLH 280252Z AUTO 35009KT 10SM CLR 17/M11 A2990 RMK AO2 SLP123 T01671111 53018
cycle: 3

Station Type Date Time Source
KBLH TAF 2021/02/27 18:42 UTC NOAA

TAF KBLH 271738Z 2718/2818 35012G20KT P6SM SKC
FM280000 35009KT P6SM SKC
FM280700 34020G30KT P6SM SKC

Example: see airport list